Time;durP1;ratioP1;P1;durP2;ratioP2;P2;SDS_P1;SDS_P2;PMS_P1;PMS_P2;Temp;Humidity;BMP_temperature;BMP_pressure;BME280_temperature;BME280_humidity;BME280_pressure;Samples;Min_cycle;Max_cycle;Signal;HPM_P1;HPM_P2
2022/04/29 00:02:06;;;;;;;;;;;20.80;99.90;;;;;;4881484;29;19912;-75
2022/04/29 00:04:33;;;;;;;;;;;20.80;99.90;;;;;;4881292;29;19974;-75
2022/04/29 00:07:00;;;;;;;;;;;20.90;99.90;;;;;;4864782;29;20291;-77
2022/04/29 00:09:26;;;;;;;;;;;20.90;99.90;;;;;;4881425;29;19912;-76
2022/04/29 00:11:54;;;;;;;;;;;21.00;99.90;;;;;;4880908;29;19912;-74
2022/04/29 00:14:23;;;;;;;;;;;21.00;99.90;;;;;;4881302;29;19920;-76
2022/04/29 00:16:50;;;;;;;;;;;21.10;99.90;;;;;;4881197;29;20286;-73
2022/04/29 00:19:17;;;;;;;;;;;21.30;99.90;;;;;;4881388;29;19916;-73
2022/04/29 00:21:45;;;;;;;;;;;21.30;99.90;;;;;;4881018;29;19912;-76
2022/04/29 00:24:12;;;;;;;;;;;21.40;99.90;;;;;;4881189;29;20011;-75
2022/04/29 00:26:39;;;;;;;;;;;21.40;99.90;;;;;;4881213;29;19994;-74
2022/04/29 00:29:07;;;;;;;;;;;21.40;99.90;;;;;;4880833;29;19951;-73
2022/04/29 00:31:35;;;;;;;;;;;21.40;99.90;;;;;;4880972;29;19912;-75
2022/04/29 00:34:01;;;;;;;;;;;21.50;99.90;;;;;;4880836;29;19916;-74
2022/04/29 00:36:28;;;;;;;;;;;21.50;99.90;;;;;;4880916;29;20336;-73
2022/04/29 00:38:55;;;;;;;;;;;21.70;99.90;;;;;;4864042;29;20279;-74
2022/04/29 00:41:22;;;;;;;;;;;21.70;99.90;;;;;;4880893;29;19939;-76
2022/04/29 00:44:04;;;;;;;;;;;21.80;99.90;;;;;;4880511;29;19912;-77
2022/04/29 00:46:34;;;;;;;;;;;21.80;99.90;;;;;;4880520;29;19918;-76
2022/04/29 00:49:01;;;;;;;;;;;21.90;99.90;;;;;;4880540;29;19918;-75
2022/04/29 00:51:28;;;;;;;;;;;22.20;99.90;;;;;;4880814;29;20011;-76
2022/04/29 00:53:55;;;;;;;;;;;22.30;99.90;;;;;;4880230;29;19920;-75
2022/04/29 00:56:23;;;;;;;;;;;22.40;99.90;;;;;;4880663;29;19912;-74
2022/04/29 00:58:54;;;;;;;;;;;22.60;99.90;;;;;;4880494;29;19998;-75
2022/04/29 01:01:22;;;;;;;;;;;22.80;99.90;;;;;;4880663;29;20291;-75
2022/04/29 01:03:49;;;;;;;;;;;22.70;99.90;;;;;;4880218;29;20320;-75
2022/04/29 01:06:16;;;;;;;;;;;22.80;99.90;;;;;;4880522;29;20512;-77
2022/04/29 01:08:42;;;;;;;;;;;23.00;99.90;;;;;;4880527;29;19994;-75
2022/04/29 01:11:09;;;;;;;;;;;23.20;99.90;;;;;;4880398;29;19967;-75
2022/04/29 01:13:36;;;;;;;;;;;23.20;99.90;;;;;;4879644;29;19918;-75
2022/04/29 01:16:02;;;;;;;;;;;23.40;99.90;;;;;;4881015;29;19951;-76
2022/04/29 01:18:29;;;;;;;;;;;23.60;99.90;;;;;;4880932;29;19919;-75
2022/04/29 01:21:03;;;;;;;;;;;23.80;99.90;;;;;;4863919;29;19912;-75
2022/04/29 01:23:31;;;;;;;;;;;23.80;99.90;;;;;;4879980;29;19919;-76
2022/04/29 01:25:58;;;;;;;;;;;23.90;99.90;;;;;;4880168;29;19915;-75
2022/04/29 01:28:26;;;;;;;;;;;23.70;99.90;;;;;;4880044;29;20355;-75
2022/04/29 01:30:53;;;;;;;;;;;23.50;99.90;;;;;;4879056;29;19911;-77
2022/04/29 01:33:19;;;;;;;;;;;23.30;99.90;;;;;;4880060;29;19919;-75
2022/04/29 01:35:46;;;;;;;;;;;23.10;99.90;;;;;;4879695;29;19919;-75
2022/04/29 01:38:13;;;;;;;;;;;23.20;99.90;;;;;;4880060;29;19911;-78
2022/04/29 01:40:40;;;;;;;;;;;23.20;99.90;;;;;;4879966;29;19912;-75
2022/04/29 01:43:06;;;;;;;;;;;23.40;99.90;;;;;;4879832;29;19919;-77
2022/04/29 01:45:33;;;;;;;;;;;23.40;99.90;;;;;;4879568;29;19919;-75
2022/04/29 01:48:00;;;;;;;;;;;23.40;99.90;;;;;;4879889;29;19924;-77
2022/04/29 01:50:26;;;;;;;;;;;23.20;99.90;;;;;;4879799;29;19918;-75
2022/04/29 01:52:53;;;;;;;;;;;23.20;99.90;;;;;;4879841;29;19918;-75
2022/04/29 01:55:20;;;;;;;;;;;23.10;99.90;;;;;;4879628;29;19926;-75
2022/04/29 01:57:49;;;;;;;;;;;23.10;99.90;;;;;;4879510;29;19915;-75
2022/04/29 02:00:16;;;;;;;;;;;23.30;99.90;;;;;;4879571;29;19923;-75
2022/04/29 02:02:43;;;;;;;;;;;23.20;99.90;;;;;;4879435;29;20355;-75
2022/04/29 02:05:11;;;;;;;;;;;23.20;99.90;;;;;;4879468;29;19931;-75
2022/04/29 02:07:37;;;;;;;;;;;23.20;99.90;;;;;;4872555;29;20361;-77
2022/04/29 02:10:04;;;;;;;;;;;23.10;99.90;;;;;;4866973;29;20336;-75
2022/04/29 02:12:31;;;;;;;;;;;23.10;99.90;;;;;;4860399;29;19919;-77
2022/04/29 02:14:58;;;;;;;;;;;23.10;99.90;;;;;;4860229;29;20383;-75
2022/04/29 02:17:25;;;;;;;;;;;23.10;99.90;;;;;;4860248;29;19946;-74
2022/04/29 02:19:52;;;;;;;;;;;23.00;99.90;;;;;;4860232;29;20011;-85
2022/04/29 02:22:18;;;;;;;;;;;23.10;99.90;;;;;;4860179;29;19912;-74
2022/04/29 02:24:45;;;;;;;;;;;23.10;99.90;;;;;;4859954;29;19934;-75
2022/04/29 02:27:12;;;;;;;;;;;23.10;99.90;;;;;;4860218;29;20380;-75
2022/04/29 02:29:38;;;;;;;;;;;23.20;99.90;;;;;;4871157;29;19912;-75
2022/04/29 02:32:05;;;;;;;;;;;23.30;99.90;;;;;;4878970;29;19911;-75
2022/04/29 02:34:32;;;;;;;;;;;23.30;99.90;;;;;;4879067;29;20399;-76
2022/04/29 02:36:59;;;;;;;;;;;23.30;99.90;;;;;;4879213;29;19915;-75
2022/04/29 02:39:25;;;;;;;;;;;23.30;99.90;;;;;;4878998;29;19912;-76
2022/04/29 02:41:52;;;;;;;;;;;23.40;99.90;;;;;;4878829;29;20011;-75
2022/04/29 02:44:19;;;;;;;;;;;23.40;99.90;;;;;;4879242;29;19912;-74
2022/04/29 02:49:30;;;;;;;;;;;23.60;99.90;;;;;;4879040;29;19934;-77
2022/04/29 02:51:57;;;;;;;;;;;23.50;99.90;;;;;;4879224;29;20002;-75
2022/04/29 02:54:23;;;;;;;;;;;23.60;99.90;;;;;;4878961;29;19966;-75
2022/04/29 02:56:51;;;;;;;;;;;23.60;99.90;;;;;;4879034;29;20011;-77
2022/04/29 02:59:18;;;;;;;;;;;23.50;99.90;;;;;;4878929;29;20364;-75
2022/04/29 03:01:45;;;;;;;;;;;23.50;99.90;;;;;;4878965;29;19911;-75
2022/04/29 03:04:12;;;;;;;;;;;23.50;99.90;;;;;;4878370;29;19980;-81
2022/04/29 03:06:39;;;;;;;;;;;23.50;99.90;;;;;;4860739;29;19919;-79
2022/04/29 03:09:05;;;;;;;;;;;23.50;99.90;;;;;;4878713;29;20325;-78
2022/04/29 03:11:32;;;;;;;;;;;23.50;99.90;;;;;;4878558;29;20006;-77
2022/04/29 03:13:59;;;;;;;;;;;23.70;99.90;;;;;;4861503;29;20372;-76
2022/04/29 03:16:25;;;;;;;;;;;23.70;99.90;;;;;;4878869;29;19959;-77
2022/04/29 03:18:52;;;;;;;;;;;23.80;99.90;;;;;;4880213;29;19915;-74
2022/04/29 03:21:20;;;;;;;;;;;23.90;99.90;;;;;;4882127;29;19912;-75
2022/04/29 03:23:47;;;;;;;;;;;23.70;99.90;;;;;;4881906;29;19945;-77
2022/04/29 03:26:14;;;;;;;;;;;23.90;99.90;;;;;;4882153;29;20004;-75
2022/04/29 03:28:41;;;;;;;;;;;24.10;99.90;;;;;;4882220;29;19916;-75
2022/04/29 03:31:07;;;;;;;;;;;24.10;99.90;;;;;;4881923;29;19955;-77
2022/04/29 03:33:34;;;;;;;;;;;24.10;99.90;;;;;;4875103;29;19916;-81
2022/04/29 03:36:01;;;;;;;;;;;24.00;99.90;;;;;;4869648;29;19916;-76
2022/04/29 03:38:27;;;;;;;;;;;23.90;99.90;;;;;;4881599;29;19939;-76
2022/04/29 03:40:54;;;;;;;;;;;24.00;99.90;;;;;;4882049;29;19911;-76
2022/04/29 03:43:22;;;;;;;;;;;23.90;99.90;;;;;;4881649;29;20279;-81
2022/04/29 03:45:48;;;;;;;;;;;23.90;99.90;;;;;;4881661;29;19912;-77
2022/04/29 03:48:18;;;;;;;;;;;23.70;99.90;;;;;;4881963;29;20349;-82
2022/04/29 03:50:45;;;;;;;;;;;23.60;99.90;;;;;;4881855;29;19912;-80
2022/04/29 03:53:12;;;;;;;;;;;23.50;99.90;;;;;;4865020;29;19970;-79
2022/04/29 03:55:42;;;;;;;;;;;23.40;99.90;;;;;;4881474;29;19919;-83
2022/04/29 03:58:09;;;;;;;;;;;23.30;99.90;;;;;;4864911;29;19998;-77
2022/04/29 04:00:36;;;;;;;;;;;23.30;99.90;;;;;;4881640;29;19911;-77
2022/04/29 04:03:06;;;;;;;;;;;23.20;99.90;;;;;;4881391;29;19968;-78
2022/04/29 04:05:34;;;;;;;;;;;23.10;99.90;;;;;;4881130;29;19923;-78
2022/04/29 04:08:00;;;;;;;;;;;23.20;99.90;;;;;;4881588;29;20453;-81
2022/04/29 04:10:27;;;;;;;;;;;23.10;99.90;;;;;;4881276;29;19916;-80
2022/04/29 04:12:54;;;;;;;;;;;23.10;99.90;;;;;;4880934;29;19968;-80
2022/04/29 04:15:23;;;;;;;;;;;23.10;99.90;;;;;;4881179;29;19967;-79
2022/04/29 04:17:50;;;;;;;;;;;23.00;99.90;;;;;;4880842;29;19920;-79
2022/04/29 04:20:18;;;;;;;;;;;23.10;99.90;;;;;;4881178;29;19919;-77
2022/04/29 04:22:45;;;;;;;;;;;23.10;99.90;;;;;;4881326;29;19912;-78
2022/04/29 04:25:12;;;;;;;;;;;23.10;99.90;;;;;;4881114;29;20023;-77
2022/04/29 04:27:39;;;;;;;;;;;23.20;99.90;;;;;;4880671;29;19955;-76
2022/04/29 04:30:06;;;;;;;;;;;23.20;99.90;;;;;;4880426;29;20283;-75
2022/04/29 04:32:34;;;;;;;;;;;23.30;99.90;;;;;;4881077;29;19967;-74
2022/04/29 04:35:00;;;;;;;;;;;23.50;99.90;;;;;;4880908;29;19983;-77
2022/04/29 04:37:28;;;;;;;;;;;23.50;99.90;;;;;;4880968;29;20312;-76
2022/04/29 04:39:58;;;;;;;;;;;23.50;99.90;;;;;;4880717;29;19912;-74
2022/04/29 04:42:25;;;;;;;;;;;23.60;99.90;;;;;;4880793;29;19912;-75
2022/04/29 04:44:52;;;;;;;;;;;23.60;99.90;;;;;;4880739;29;20019;-75
2022/04/29 04:47:20;;;;;;;;;;;23.60;99.90;;;;;;4880567;29;19998;-75
2022/04/29 04:49:46;;;;;;;;;;;23.70;99.90;;;;;;4880252;29;19911;-77
2022/04/29 04:52:13;;;;;;;;;;;23.60;99.90;;;;;;4880562;29;19919;-76
2022/04/29 04:54:40;;;;;;;;;;;23.50;99.90;;;;;;4880513;29;19927;-76
2022/04/29 04:57:07;;;;;;;;;;;23.50;99.90;;;;;;4880383;29;20006;-75
2022/04/29 04:59:33;;;;;;;;;;;23.60;99.90;;;;;;4880137;29;19912;-74
2022/04/29 05:02:00;;;;;;;;;;;23.60;99.90;;;;;;4863601;29;19935;-79
2022/04/29 05:04:27;;;;;;;;;;;23.60;99.90;;;;;;4880102;29;19928;-76
2022/04/29 05:06:54;;;;;;;;;;;23.60;99.90;;;;;;4880350;29;19976;-81
2022/04/29 05:09:20;;;;;;;;;;;23.60;99.90;;;;;;4880251;29;19968;-83
2022/04/29 05:11:47;;;;;;;;;;;23.40;99.90;;;;;;4880021;29;19916;-82
2022/04/29 05:14:14;;;;;;;;;;;23.30;99.90;;;;;;4880210;29;20329;-78
2022/04/29 05:16:40;;;;;;;;;;;23.30;99.90;;;;;;4880033;29;19912;-79
2022/04/29 05:19:07;;;;;;;;;;;23.30;99.90;;;;;;4880126;29;19955;-81
2022/04/29 05:21:33;;;;;;;;;;;23.20;99.90;;;;;;4879593;29;19911;-77
2022/04/29 05:24:00;;;;;;;;;;;23.30;99.90;;;;;;4879847;29;19912;-78
2022/04/29 05:26:27;;;;;;;;;;;23.10;99.90;;;;;;4880094;29;19916;-83
2022/04/29 05:28:53;;;;;;;;;;;23.10;99.90;;;;;;4879864;29;19912;-83
2022/04/29 05:31:20;;;;;;;;;;;23.00;99.90;;;;;;4879938;29;19912;-82
2022/04/29 05:33:47;;;;;;;;;;;23.00;99.90;;;;;;4879884;29;20297;-83
2022/04/29 05:36:14;;;;;;;;;;;23.00;99.90;;;;;;4879793;29;20233;-79
2022/04/29 05:44:11;;;;;;;;;;;23.00;99.90;;;;;;4877543;29;20232;-82
2022/04/29 05:46:37;;;;;;;;;;;23.00;99.90;;;;;;4869475;29;19939;-83
2022/04/29 05:49:04;;;;;;;;;;;23.00;99.90;;;;;;4860258;29;20340;-79
2022/04/29 05:51:31;;;;;;;;;;;22.90;99.90;;;;;;4843639;29;19912;-81
2022/04/29 05:54:00;;;;;;;;;;;23.00;99.90;;;;;;4861097;29;19927;-79
2022/04/29 05:56:28;;;;;;;;;;;23.00;99.90;;;;;;4861064;29;20327;-79
2022/04/29 05:58:55;;;;;;;;;;;23.00;99.90;;;;;;4860772;29;19920;-81
2022/04/29 06:01:22;;;;;;;;;;;22.90;99.90;;;;;;4861017;29;19919;-80
2022/04/29 06:03:48;;;;;;;;;;;22.90;99.90;;;;;;4860573;29;19936;-81
2022/04/29 06:06:15;;;;;;;;;;;22.90;99.90;;;;;;4860998;29;19912;-80
2022/04/29 06:08:42;;;;;;;;;;;22.80;99.90;;;;;;4860924;29;20395;-78
2022/04/29 06:11:09;;;;;;;;;;;22.80;99.90;;;;;;4860702;29;20369;-81
2022/04/29 06:13:37;;;;;;;;;;;22.80;99.90;;;;;;4860170;29;20385;-81
2022/04/29 06:16:05;;;;;;;;;;;22.80;99.90;;;;;;4844171;29;20023;-81
2022/04/29 06:18:32;;;;;;;;;;;22.80;99.90;;;;;;4860921;29;19962;-82
2022/04/29 06:20:59;;;;;;;;;;;22.80;99.90;;;;;;4860707;29;20384;-75
2022/04/29 06:23:25;;;;;;;;;;;22.80;99.90;;;;;;4860721;29;19941;-79
2022/04/29 06:25:53;;;;;;;;;;;22.80;99.90;;;;;;4860518;29;20247;-80
2022/04/29 06:28:20;;;;;;;;;;;22.80;99.90;;;;;;4860527;29;19980;-82
2022/04/29 06:30:46;;;;;;;;;;;22.70;99.90;;;;;;4860912;29;20027;-80
2022/04/29 06:33:13;;;;;;;;;;;22.70;99.90;;;;;;4860838;29;19951;-81
2022/04/29 06:35:42;;;;;;;;;;;22.70;99.90;;;;;;4860223;29;19920;-76
2022/04/29 06:38:09;;;;;;;;;;;22.60;99.90;;;;;;4860730;29;20257;-75
2022/04/29 06:40:36;;;;;;;;;;;22.60;99.90;;;;;;4860853;29;19948;-76
2022/04/29 06:43:03;;;;;;;;;;;22.60;99.90;;;;;;4860500;29;19912;-77
2022/04/29 06:45:30;;;;;;;;;;;22.60;99.90;;;;;;4860596;29;19912;-75
2022/04/29 06:47:56;;;;;;;;;;;22.60;99.90;;;;;;4860715;29;19936;-75
2022/04/29 06:50:23;;;;;;;;;;;22.60;99.90;;;;;;4860546;29;19912;-75
2022/04/29 06:52:50;;;;;;;;;;;22.50;99.90;;;;;;4859341;29;19916;-79
2022/04/29 06:55:16;;;;;;;;;;;22.60;99.90;;;;;;4862007;29;19953;-79
2022/04/29 06:57:43;;;;;;;;;;;22.50;99.90;;;;;;4861815;29;19976;-79
2022/04/29 07:00:10;;;;;;;;;;;22.50;99.90;;;;;;4862065;29;20022;-75
2022/04/29 07:02:37;;;;;;;;;;;22.40;99.90;;;;;;4860858;29;19932;-77
2022/04/29 07:05:03;;;;;;;;;;;22.40;99.90;;;;;;4861584;29;19928;-77
2022/04/29 07:07:30;;;;;;;;;;;22.40;99.90;;;;;;4861842;29;19912;-75
2022/04/29 07:09:57;;;;;;;;;;;22.30;99.90;;;;;;4862121;29;20581;-76
2022/04/29 07:12:23;;;;;;;;;;;22.30;99.90;;;;;;4862785;29;19920;-75
2022/04/29 07:14:53;;;;;;;;;;;22.30;99.90;;;;;;4861903;29;20210;-76
2022/04/29 07:17:23;;;;;;;;;;;22.20;99.90;;;;;;4861997;29;19947;-77
2022/04/29 07:19:50;;;;;;;;;;;22.30;99.90;;;;;;4861448;29;20281;-77
2022/04/29 07:22:16;;;;;;;;;;;22.20;99.90;;;;;;4861159;29;19912;-75
2022/04/29 07:24:43;;;;;;;;;;;22.20;99.90;;;;;;4861551;29;19912;-75
2022/04/29 07:27:10;;;;;;;;;;;22.20;99.90;;;;;;4861483;29;19912;-76
2022/04/29 07:29:36;;;;;;;;;;;22.20;99.90;;;;;;4861547;29;19916;-75
2022/04/29 07:32:03;;;;;;;;;;;22.20;99.90;;;;;;4861559;29;19934;-76
2022/04/29 07:42:44;;;;;;;;;;;22.10;99.90;;;;;;4861389;29;20478;-76
2022/04/29 07:45:11;;;;;;;;;;;22.00;99.90;;;;;;4861298;29;19913;-77
2022/04/29 07:47:37;;;;;;;;;;;22.00;99.90;;;;;;4860993;29;19912;-78
2022/04/29 07:50:05;;;;;;;;;;;22.00;99.90;;;;;;4861219;29;19912;-78
2022/04/29 07:52:34;;;;;;;;;;;22.00;99.90;;;;;;4860833;29;19916;-77
2022/04/29 07:55:01;;;;;;;;;;;22.00;99.90;;;;;;4861040;29;19972;-76
2022/04/29 07:57:27;;;;;;;;;;;22.00;99.90;;;;;;4861267;29;20324;-76
2022/04/29 07:59:54;;;;;;;;;;;21.90;99.90;;;;;;4860700;29;19916;-76
2022/04/29 08:02:21;;;;;;;;;;;21.90;99.90;;;;;;4860752;29;19988;-77
2022/04/29 08:04:47;;;;;;;;;;;21.90;99.90;;;;;;4859816;29;20028;-78
2022/04/29 08:07:14;;;;;;;;;;;21.90;99.90;;;;;;4860914;29;19923;-79
2022/04/29 08:09:41;;;;;;;;;;;21.90;99.90;;;;;;4860509;29;20262;-76
2022/04/29 08:12:10;;;;;;;;;;;21.90;99.90;;;;;;4860602;29;19939;-76
2022/04/29 08:14:36;;;;;;;;;;;21.80;99.90;;;;;;4860533;29;19928;-78
2022/04/29 08:17:03;;;;;;;;;;;21.80;99.90;;;;;;4860219;29;20364;-75
2022/04/29 08:19:30;;;;;;;;;;;21.80;99.90;;;;;;4860377;29;19944;-75
2022/04/29 08:21:56;;;;;;;;;;;21.80;99.90;;;;;;4860555;29;19919;-75
2022/04/29 08:24:23;;;;;;;;;;;21.80;99.90;;;;;;4860351;29;20037;-75
2022/04/29 08:26:50;;;;;;;;;;;21.80;99.90;;;;;;4860183;29;19913;-75
2022/04/29 08:29:16;;;;;;;;;;;21.80;99.90;;;;;;4860248;29;19912;-76
2022/04/29 08:31:43;;;;;;;;;;;21.80;99.90;;;;;;4860184;29;19916;-76
2022/04/29 08:34:10;;;;;;;;;;;21.80;99.90;;;;;;4860399;29;20014;-75
2022/04/29 08:36:36;;;;;;;;;;;21.80;99.90;;;;;;4860312;29;19965;-78
2022/04/29 08:39:03;;;;;;;;;;;21.70;99.90;;;;;;4860317;29;19940;-75
2022/04/29 08:41:30;;;;;;;;;;;21.70;99.90;;;;;;4858868;29;19916;-75
2022/04/29 08:43:57;;;;;;;;;;;21.70;99.90;;;;;;4859857;29;19916;-77
2022/04/29 08:46:24;;;;;;;;;;;21.70;99.90;;;;;;4860012;29;20364;-76
2022/04/29 08:48:52;;;;;;;;;;;21.70;99.90;;;;;;4860083;29;19912;-75
2022/04/29 08:51:19;;;;;;;;;;;21.70;99.90;;;;;;4860142;29;20454;-77
2022/04/29 08:53:47;;;;;;;;;;;21.60;99.90;;;;;;4859837;29;19917;-75
2022/04/29 08:59:01;;;;;;;;;;;21.60;99.90;;;;;;4860092;29;19952;-75
2022/04/29 09:01:28;;;;;;;;;;;21.60;99.90;;;;;;4859975;29;20372;-76
2022/04/29 09:03:54;;;;;;;;;;;21.60;99.90;;;;;;4859594;29;19931;-76
2022/04/29 09:06:25;;;;;;;;;;;21.60;99.90;;;;;;4860548;29;20142;-76
2022/04/29 09:08:52;;;;;;;;;;;21.60;99.90;;;;;;4861772;29;20357;-75
2022/04/29 09:11:27;;;;;;;;;;;21.60;99.90;;;;;;4861752;29;20292;-75
2022/04/29 09:13:54;;;;;;;;;;;21.60;99.90;;;;;;4861469;29;19912;-75
2022/04/29 09:16:21;;;;;;;;;;;21.60;99.90;;;;;;4861664;29;19920;-74
2022/04/29 09:18:49;;;;;;;;;;;21.60;99.90;;;;;;4861695;29;19916;-74
2022/04/29 09:21:17;;;;;;;;;;;21.50;99.90;;;;;;4861524;29;19927;-75
2022/04/29 09:23:55;;;;;;;;;;;21.60;99.90;;;;;;4861362;29;19912;-78
2022/04/29 09:26:35;;;;;;;;;;;21.50;99.90;;;;;;4861536;29;19913;-75
2022/04/29 09:29:15;;;;;;;;;;;21.50;99.90;;;;;;4861589;29;19912;-77
2022/04/29 09:31:54;;;;;;;;;;;21.50;99.90;;;;;;4861107;29;19912;-76
2022/04/29 09:34:21;;;;;;;;;;;21.50;99.90;;;;;;4861531;29;19916;-75
2022/04/29 09:36:49;;;;;;;;;;;21.40;99.90;;;;;;4861460;29;19954;-78
2022/04/29 09:39:27;;;;;;;;;;;21.40;99.90;;;;;;4861476;29;20285;-80
2022/04/29 09:41:55;;;;;;;;;;;21.40;99.90;;;;;;4861070;29;20003;-77
2022/04/29 09:44:28;;;;;;;;;;;21.40;99.90;;;;;;4861363;29;20324;-75
2022/04/29 09:46:55;;;;;;;;;;;21.40;99.90;;;;;;4860012;29;20281;-75
2022/04/29 09:49:26;;;;;;;;;;;21.40;99.90;;;;;;4861232;29;19918;-77
2022/04/29 09:51:53;;;;;;;;;;;21.40;99.90;;;;;;4861239;29;19919;-76
2022/04/29 09:54:26;;;;;;;;;;;21.30;99.90;;;;;;4861209;29;19975;-75
2022/04/29 09:57:04;;;;;;;;;;;21.30;99.90;;;;;;4859759;29;19951;-75
2022/04/29 09:59:47;;;;;;;;;;;21.30;99.90;;;;;;4860974;29;19963;-76
2022/04/29 10:02:15;;;;;;;;;;;21.30;99.90;;;;;;4861093;29;19912;-75
2022/04/29 10:04:44;;;;;;;;;;;21.30;99.90;;;;;;4861076;29;19931;-75
2022/04/29 10:07:12;;;;;;;;;;;21.30;99.90;;;;;;4861000;29;19916;-76
2022/04/29 10:09:40;;;;;;;;;;;21.30;99.90;;;;;;4860848;29;19972;-76
2022/04/29 10:12:13;;;;;;;;;;;21.30;99.90;;;;;;4861036;29;19919;-76
2022/04/29 10:14:40;;;;;;;;;;;21.30;99.90;;;;;;4860770;29;20015;-77
2022/04/29 10:23:07;;;;;;;;;;;21.30;99.90;;;;;;4855786;29;19996;-76
2022/04/29 10:25:34;;;;;;;;;;;21.30;99.90;;;;;;4860723;29;19992;-76
2022/04/29 10:28:02;;;;;;;;;;;21.30;99.90;;;;;;4862691;29;19912;-75
2022/04/29 10:30:35;;;;;;;;;;;21.30;99.90;;;;;;4864557;29;20035;-76
2022/04/29 10:33:06;;;;;;;;;;;21.30;99.90;;;;;;4864627;29;19918;-75
2022/04/29 10:35:50;;;;;;;;;;;21.30;99.90;;;;;;4864430;29;19943;-75
2022/04/29 10:38:25;;;;;;;;;;;21.30;99.90;;;;;;4864624;29;19912;-76
2022/04/29 10:41:10;;;;;;;;;;;21.30;99.90;;;;;;4864478;29;20372;-76
2022/04/29 10:43:40;;;;;;;;;;;21.30;99.90;;;;;;4864250;29;20517;-76
2022/04/29 10:46:07;;;;;;;;;;;21.30;99.90;;;;;;4864265;29;20011;-76
2022/04/29 10:48:34;;;;;;;;;;;21.30;99.90;;;;;;4864213;29;19912;-77
2022/04/29 10:51:11;;;;;;;;;;;21.30;99.90;;;;;;4864372;29;19913;-75
2022/04/29 10:53:43;;;;;;;;;;;21.30;99.90;;;;;;4864162;29;19916;-76
2022/04/29 10:56:28;;;;;;;;;;;21.30;99.90;;;;;;4864002;29;20034;-76
2022/04/29 10:58:59;;;;;;;;;;;21.30;99.90;;;;;;4864055;29;19912;-76
2022/04/29 11:01:27;;;;;;;;;;;21.30;99.90;;;;;;4862812;29;20271;-76
2022/04/29 11:03:54;;;;;;;;;;;21.30;99.90;;;;;;4863700;29;19924;-76
2022/04/29 11:06:21;;;;;;;;;;;21.30;99.90;;;;;;4864061;29;19912;-76
2022/04/29 11:08:48;;;;;;;;;;;21.30;99.90;;;;;;4863953;29;19917;-76
2022/04/29 11:11:15;;;;;;;;;;;21.30;99.90;;;;;;4863740;29;20400;-75
2022/04/29 11:13:47;;;;;;;;;;;21.30;99.90;;;;;;4863730;29;19920;-75
2022/04/29 11:16:15;;;;;;;;;;;21.30;99.90;;;;;;4863937;29;20280;-76
2022/04/29 11:18:43;;;;;;;;;;;21.30;99.90;;;;;;4863604;29;20340;-76
2022/04/29 11:26:45;;;;;;;;;;;21.20;99.90;;;;;;4863956;29;19982;-77
2022/04/29 11:29:12;;;;;;;;;;;21.20;99.90;;;;;;4863584;29;20257;-76
2022/04/29 11:31:39;;;;;;;;;;;21.20;99.90;;;;;;4863476;29;19912;-77
2022/04/29 11:34:10;;;;;;;;;;;21.20;99.90;;;;;;4863585;29;19920;-77
2022/04/29 11:36:37;;;;;;;;;;;21.20;99.90;;;;;;4863582;29;19919;-77
2022/04/29 11:39:18;;;;;;;;;;;21.20;99.90;;;;;;4861133;29;20364;-76
2022/04/29 11:41:58;;;;;;;;;;;21.20;99.90;;;;;;4863096;29;19935;-76
2022/04/29 11:44:38;;;;;;;;;;;21.20;99.90;;;;;;4863415;29;19912;-77
2022/04/29 11:47:05;;;;;;;;;;;21.30;99.90;;;;;;4863407;29;19928;-75
2022/04/29 11:49:32;;;;;;;;;;;21.30;99.90;;;;;;4863044;29;19919;-75
2022/04/29 11:52:17;;;;;;;;;;;21.30;99.90;;;;;;4863464;29;20287;-77
2022/04/29 11:54:50;;;;;;;;;;;21.30;99.90;;;;;;4863217;29;20433;-76
2022/04/29 11:57:20;;;;;;;;;;;21.30;99.90;;;;;;4862715;29;19952;-76
2022/04/29 11:59:47;;;;;;;;;;;21.30;99.90;;;;;;4862946;29;19916;-77
2022/04/29 12:02:20;;;;;;;;;;;21.30;99.90;;;;;;4863140;29;20357;-75
2022/04/29 12:04:56;;;;;;;;;;;21.30;99.90;;;;;;4863038;29;19924;-76
2022/04/29 12:07:23;;;;;;;;;;;21.30;99.90;;;;;;4863209;29;19937;-77
2022/04/29 12:09:50;;;;;;;;;;;21.30;99.90;;;;;;4861386;29;19913;-76
2022/04/29 12:12:23;;;;;;;;;;;21.20;99.90;;;;;;4862180;29;20384;-74
2022/04/29 12:14:49;;;;;;;;;;;21.30;99.90;;;;;;4862857;29;20374;-75
2022/04/29 12:17:16;;;;;;;;;;;21.20;99.90;;;;;;4862957;29;19949;-76
2022/04/29 12:19:43;;;;;;;;;;;21.30;99.90;;;;;;4862652;29;19975;-75
2022/04/29 12:22:10;;;;;;;;;;;21.30;99.90;;;;;;4862770;29;19919;-75
2022/04/29 12:24:43;;;;;;;;;;;21.30;99.90;;;;;;4862608;29;20349;-74
2022/04/29 12:27:10;;;;;;;;;;;21.30;99.90;;;;;;4861799;29;20295;-75
2022/04/29 12:29:40;;;;;;;;;;;21.30;99.90;;;;;;4862557;29;19976;-75
2022/04/29 12:35:05;;;;;;;;;;;21.30;99.90;;;;;;4862463;29;19968;-75
2022/04/29 12:37:32;;;;;;;;;;;21.30;99.90;;;;;;4862207;29;19961;-74
2022/04/29 12:40:08;;;;;;;;;;;21.30;99.90;;;;;;4862364;29;20288;-74
2022/04/29 12:42:35;;;;;;;;;;;21.30;99.90;;;;;;4861800;29;20009;-74
2022/04/29 12:45:05;;;;;;;;;;;21.30;99.90;;;;;;4862222;29;19919;-77
2022/04/29 12:47:33;;;;;;;;;;;21.30;99.90;;;;;;4861924;29;19916;-76
2022/04/29 12:50:35;;;;;;;;;;;21.30;99.90;;;;;;4861977;29;19912;-75
2022/04/29 12:53:09;;;;;;;;;;;21.20;99.90;;;;;;4841642;29;19912;-75
2022/04/29 12:55:39;;;;;;;;;;;21.20;99.90;;;;;;4858575;29;20288;-74
2022/04/29 12:58:07;;;;;;;;;;;21.20;99.90;;;;;;4861634;29;19972;-75
2022/04/29 13:00:34;;;;;;;;;;;21.10;99.90;;;;;;4862123;29;19912;-76
2022/04/29 13:03:12;;;;;;;;;;;21.10;99.90;;;;;;4861886;29;19924;-75
2022/04/29 13:05:38;;;;;;;;;;;21.10;99.90;;;;;;4861841;29;19916;-76
2022/04/29 13:08:07;;;;;;;;;;;21.20;99.90;;;;;;4861911;29;20003;-76
2022/04/29 13:10:43;;;;;;;;;;;21.20;99.90;;;;;;4860787;29;20325;-78
2022/04/29 13:13:10;;;;;;;;;;;21.20;99.90;;;;;;4861993;29;19912;-76
2022/04/29 13:15:40;;;;;;;;;;;21.20;99.90;;;;;;4861642;29;19927;-77
2022/04/29 13:18:07;;;;;;;;;;;21.20;99.90;;;;;;4861769;29;19912;-76
2022/04/29 13:20:34;;;;;;;;;;;21.20;99.90;;;;;;4861857;29;19919;-77
2022/04/29 13:23:01;;;;;;;;;;;21.10;99.90;;;;;;4861630;29;19912;-76
2022/04/29 13:25:27;;;;;;;;;;;21.10;99.90;;;;;;4861347;29;19948;-76
2022/04/29 13:27:54;;;;;;;;;;;21.10;99.90;;;;;;4860922;29;19920;-75
2022/04/29 13:30:21;;;;;;;;;;;21.10;99.90;;;;;;4861644;29;19913;-77
2022/04/29 13:32:48;;;;;;;;;;;21.10;99.90;;;;;;4861659;29;19916;-76
2022/04/29 13:35:16;;;;;;;;;;;21.10;99.90;;;;;;4861489;29;19924;-76
2022/04/29 13:37:43;;;;;;;;;;;21.10;99.90;;;;;;4861418;29;20360;-77
2022/04/29 13:40:10;;;;;;;;;;;21.10;99.90;;;;;;4861281;29;19959;-77
2022/04/29 13:42:37;;;;;;;;;;;21.20;99.90;;;;;;4860902;29;19986;-80
2022/04/29 13:45:05;;;;;;;;;;;21.20;99.90;;;;;;4861447;29;19919;-78
2022/04/29 13:47:35;;;;;;;;;;;21.10;99.90;;;;;;4861164;29;19916;-76
2022/04/29 13:50:01;;;;;;;;;;;21.20;99.90;;;;;;4861233;29;19919;-76
2022/04/29 13:55:14;;;;;;;;;;;21.20;99.90;;;;;;4861287;29;19927;-76
2022/04/29 13:57:41;;;;;;;;;;;21.20;99.90;;;;;;4860938;29;19913;-75
2022/04/29 14:00:13;;;;;;;;;;;21.20;99.90;;;;;;4861235;29;19920;-75
2022/04/29 14:02:40;;;;;;;;;;;21.20;99.90;;;;;;4860671;29;20271;-76
2022/04/29 14:05:08;;;;;;;;;;;21.20;99.90;;;;;;4859428;29;20372;-76
2022/04/29 14:07:35;;;;;;;;;;;21.20;99.90;;;;;;4861050;29;19918;-76
2022/04/29 14:10:02;;;;;;;;;;;21.20;99.90;;;;;;4861070;29;19920;-76
2022/04/29 14:12:29;;;;;;;;;;;21.20;99.90;;;;;;4860989;29;19912;-78
2022/04/29 14:14:58;;;;;;;;;;;21.20;99.90;;;;;;4860880;29;20280;-78
2022/04/29 14:17:25;;;;;;;;;;;21.20;99.90;;;;;;4860997;29;20397;-76
2022/04/29 14:19:52;;;;;;;;;;;21.20;99.90;;;;;;4860846;29;19918;-76
2022/04/29 14:22:19;;;;;;;;;;;21.10;99.90;;;;;;4861020;29;19912;-75
2022/04/29 14:24:46;;;;;;;;;;;21.10;99.90;;;;;;4860844;29;19912;-75
2022/04/29 14:27:13;;;;;;;;;;;21.20;99.90;;;;;;4860938;29;20368;-79
2022/04/29 14:29:41;;;;;;;;;;;21.10;99.90;;;;;;4859407;29;19935;-77
2022/04/29 14:32:14;;;;;;;;;;;21.10;99.90;;;;;;4860944;29;19971;-76
2022/04/29 14:34:44;;;;;;;;;;;21.10;99.90;;;;;;4860875;29;20011;-75
2022/04/29 14:37:14;;;;;;;;;;;21.10;99.90;;;;;;4860949;29;20060;-76
2022/04/29 14:39:44;;;;;;;;;;;21.10;99.90;;;;;;4860425;29;19998;-75
2022/04/29 14:42:11;;;;;;;;;;;21.10;99.90;;;;;;4860863;29;20002;-75
2022/04/29 14:44:38;;;;;;;;;;;21.00;99.90;;;;;;4860723;29;19916;-75
2022/04/29 14:47:05;;;;;;;;;;;21.00;99.90;;;;;;4860755;29;20280;-75
2022/04/29 14:49:31;;;;;;;;;;;21.00;99.90;;;;;;4860631;29;19919;-75
2022/04/29 14:51:59;;;;;;;;;;;21.00;99.90;;;;;;4860755;29;19916;-75
2022/04/29 14:54:25;;;;;;;;;;;21.00;99.90;;;;;;4860555;29;20288;-75
2022/04/29 14:56:53;;;;;;;;;;;20.90;99.90;;;;;;4860752;29;19923;-76
2022/04/29 14:59:20;;;;;;;;;;;20.90;99.90;;;;;;4860763;29;19983;-77